National Weather Service Raw Text Product

Displaying AFOS PIL: TAFFOD Received: 2018-02-14 05:26 UTC


999 
FTUS43 KDMX 140526
TAFFOD
TAF
KFOD 140526Z 1406/1506 19013KT P6SM SKC
     FM140800 20006KT 5SM BR SCT250
     FM141500 20008KT P6SM FEW250
     FM141900 21011KT P6SM FEW250=